sensor_id;sensor_type;location;lat;lon;timestamp;temperature;humidity
18690;DHT22;9782;52.930;15.562;2023-06-01T14:27:40;20.90;99.90
18690;DHT22;9782;52.930;15.562;2023-06-01T14:30:08;20.90;99.90
18690;DHT22;9782;52.930;15.562;2023-06-01T14:32:35;21.00;99.90
18690;DHT22;9782;52.930;15.562;2023-06-01T14:35:02;21.00;99.90
18690;DHT22;9782;52.930;15.562;2023-06-01T14:37:29;21.00;99.90
18690;DHT22;9782;52.930;15.562;2023-06-01T14:39:56;21.00;99.90
18690;DHT22;9782;52.930;15.562;2023-06-01T14:42:23;21.00;99.90
18690;DHT22;9782;52.930;15.562;2023-06-01T14:44:52;21.00;99.90
18690;DHT22;9782;52.930;15.562;2023-06-01T14:47:19;20.90;99.90
18690;DHT22;9782;52.930;15.562;2023-06-01T14:49:45;20.90;99.90
18690;DHT22;9782;52.930;15.562;2023-06-01T14:52:12;21.00;99.90
18690;DHT22;9782;52.930;15.562;2023-06-01T14:54:39;21.00;99.90
18690;DHT22;9782;52.930;15.562;2023-06-01T14:57:06;21.00;99.90
18690;DHT22;9782;52.930;15.562;2023-06-01T14:59:34;21.10;99.90
18690;DHT22;9782;52.930;15.562;2023-06-01T15:02:03;21.30;99.90
18690;DHT22;9782;52.930;15.562;2023-06-01T15:04:32;21.30;99.90
18690;DHT22;9782;52.930;15.562;2023-06-01T15:07:00;21.40;99.90
18690;DHT22;9782;52.930;15.562;2023-06-01T15:09:27;21.50;99.90
18690;DHT22;9782;52.930;15.562;2023-06-01T15:11:53;21.40;99.90
18690;DHT22;9782;52.930;15.562;2023-06-01T15:14:22;21.20;99.90
18690;DHT22;9782;52.930;15.562;2023-06-01T15:16:49;21.00;99.90
18690;DHT22;9782;52.930;15.562;2023-06-01T15:19:18;21.00;99.90
18690;DHT22;9782;52.930;15.562;2023-06-01T15:21:45;21.00;99.90
18690;DHT22;9782;52.930;15.562;2023-06-01T15:24:12;21.00;99.90
18690;DHT22;9782;52.930;15.562;2023-06-01T15:26:38;21.00;99.90
18690;DHT22;9782;52.930;15.562;2023-06-01T15:29:06;21.10;99.90
18690;DHT22;9782;52.930;15.562;2023-06-01T15:31:33;21.20;99.90
18690;DHT22;9782;52.930;15.562;2023-06-01T15:34:00;21.10;99.90
18690;DHT22;9782;52.930;15.562;2023-06-01T15:36:28;21.00;99.90
18690;DHT22;9782;52.930;15.562;2023-06-01T15:38:56;20.90;99.90
18690;DHT22;9782;52.930;15.562;2023-06-01T15:41:23;20.80;99.90
18690;DHT22;9782;52.930;15.562;2023-06-01T15:43:49;20.90;99.90
18690;DHT22;9782;52.930;15.562;2023-06-01T15:46:18;20.80;99.90
18690;DHT22;9782;52.930;15.562;2023-06-01T15:48:45;20.80;99.90
18690;DHT22;9782;52.930;15.562;2023-06-01T15:51:12;20.70;99.90
18690;DHT22;9782;52.930;15.562;2023-06-01T15:53:40;20.70;99.90
18690;DHT22;9782;52.930;15.562;2023-06-01T15:56:07;20.70;99.90
18690;DHT22;9782;52.930;15.562;2023-06-01T15:58:34;20.60;99.90
18690;DHT22;9782;52.930;15.562;2023-06-01T16:01:01;20.60;99.90
18690;DHT22;9782;52.930;15.562;2023-06-01T16:03:28;20.60;99.90
18690;DHT22;9782;52.930;15.562;2023-06-01T16:05:55;20.70;99.90
18690;DHT22;9782;52.930;15.562;2023-06-01T16:08:22;20.70;99.90
18690;DHT22;9782;52.930;15.562;2023-06-01T16:10:50;20.70;99.90
18690;DHT22;9782;52.930;15.562;2023-06-01T16:13:17;20.80;99.90
18690;DHT22;9782;52.930;15.562;2023-06-01T16:15:44;20.70;99.90
18690;DHT22;9782;52.930;15.562;2023-06-01T16:18:11;20.80;99.90
18690;DHT22;9782;52.930;15.562;2023-06-01T16:20:38;20.80;99.90
18690;DHT22;9782;52.930;15.562;2023-06-01T16:23:05;20.80;99.90
18690;DHT22;9782;52.930;15.562;2023-06-01T16:25:34;20.80;99.90
18690;DHT22;9782;52.930;15.562;2023-06-01T16:28:02;20.60;99.90
18690;DHT22;9782;52.930;15.562;2023-06-01T16:30:29;20.80;99.90
18690;DHT22;9782;52.930;15.562;2023-06-01T16:32:56;20.90;99.90
18690;DHT22;9782;52.930;15.562;2023-06-01T16:35:23;21.20;99.90
18690;DHT22;9782;52.930;15.562;2023-06-01T16:37:50;21.40;99.90
18690;DHT22;9782;52.930;15.562;2023-06-01T16:40:17;21.30;99.90
18690;DHT22;9782;52.930;15.562;2023-06-01T16:42:44;21.20;99.90
18690;DHT22;9782;52.930;15.562;2023-06-01T16:45:13;21.00;99.90
18690;DHT22;9782;52.930;15.562;2023-06-01T16:47:40;21.20;99.90
18690;DHT22;9782;52.930;15.562;2023-06-01T16:50:08;21.50;99.90
18690;DHT22;9782;52.930;15.562;2023-06-01T16:52:35;21.80;99.90
18690;DHT22;9782;52.930;15.562;2023-06-01T16:55:02;21.90;99.90
18690;DHT22;9782;52.930;15.562;2023-06-01T16:57:29;21.80;99.90
18690;DHT22;9782;52.930;15.562;2023-06-01T16:59:57;21.40;99.90
18690;DHT22;9782;52.930;15.562;2023-06-01T17:02:25;21.10;99.90
18690;DHT22;9782;52.930;15.562;2023-06-01T17:04:53;21.30;99.90
18690;DHT22;9782;52.930;15.562;2023-06-01T17:07:20;21.80;99.90
18690;DHT22;9782;52.930;15.562;2023-06-01T17:09:47;22.40;99.90
18690;DHT22;9782;52.930;15.562;2023-06-01T17:12:15;22.30;99.90
18690;DHT22;9782;52.930;15.562;2023-06-01T17:14:43;22.00;99.90
18690;DHT22;9782;52.930;15.562;2023-06-01T17:17:11;22.10;99.90
18690;DHT22;9782;52.930;15.562;2023-06-01T17:19:39;22.50;99.90
18690;DHT22;9782;52.930;15.562;2023-06-01T17:22:06;22.40;99.90
18690;DHT22;9782;52.930;15.562;2023-06-01T17:24:34;22.20;99.90
18690;DHT22;9782;52.930;15.562;2023-06-01T17:27:01;22.10;99.90
18690;DHT22;9782;52.930;15.562;2023-06-01T17:29:28;22.40;99.90
18690;DHT22;9782;52.930;15.562;2023-06-01T17:31:55;22.80;99.90
18690;DHT22;9782;52.930;15.562;2023-06-01T17:34:22;23.30;99.90
18690;DHT22;9782;52.930;15.562;2023-06-01T17:36:51;23.60;99.90
18690;DHT22;9782;52.930;15.562;2023-06-01T17:39:18;23.60;99.90
18690;DHT22;9782;52.930;15.562;2023-06-01T17:41:47;23.10;99.90
18690;DHT22;9782;52.930;15.562;2023-06-01T17:44:14;23.10;99.90
18690;DHT22;9782;52.930;15.562;2023-06-01T17:46:41;23.40;99.90
18690;DHT22;9782;52.930;15.562;2023-06-01T17:49:08;23.70;99.90
18690;DHT22;9782;52.930;15.562;2023-06-01T17:51:35;24.00;99.90
18690;DHT22;9782;52.930;15.562;2023-06-01T17:54:05;24.30;99.90
18690;DHT22;9782;52.930;15.562;2023-06-01T17:56:32;24.40;99.90
18690;DHT22;9782;52.930;15.562;2023-06-01T17:59:00;24.40;99.90
18690;DHT22;9782;52.930;15.562;2023-06-01T18:01:27;24.40;99.90
18690;DHT22;9782;52.930;15.562;2023-06-01T18:03:54;24.20;99.90
18690;DHT22;9782;52.930;15.562;2023-06-01T18:06:21;24.10;99.90
18690;DHT22;9782;52.930;15.562;2023-06-01T18:08:48;23.40;99.90
18690;DHT22;9782;52.930;15.562;2023-06-01T18:11:16;22.50;99.90
18690;DHT22;9782;52.930;15.562;2023-06-01T18:13:43;21.60;99.90
18690;DHT22;9782;52.930;15.562;2023-06-01T18:16:11;20.80;99.90
18690;DHT22;9782;52.930;15.562;2023-06-01T18:18:38;20.30;99.90
18690;DHT22;9782;52.930;15.562;2023-06-01T18:21:05;19.80;99.90
18690;DHT22;9782;52.930;15.562;2023-06-01T18:23:32;19.50;99.90
18690;DHT22;9782;52.930;15.562;2023-06-01T18:25:59;19.10;99.90
18690;DHT22;9782;52.930;15.562;2023-06-01T18:28:27;18.90;99.90
18690;DHT22;9782;52.930;15.562;2023-06-01T18:30:54;18.60;99.90
18690;DHT22;9782;52.930;15.562;2023-06-01T18:33:21;18.40;99.90
18690;DHT22;9782;52.930;15.562;2023-06-01T18:35:48;18.20;99.90
18690;DHT22;9782;52.930;15.562;2023-06-01T18:38:15;18.10;99.90
18690;DHT22;9782;52.930;15.562;2023-06-01T18:40:44;17.90;99.90
18690;DHT22;9782;52.930;15.562;2023-06-01T18:43:11;17.70;99.90
18690;DHT22;9782;52.930;15.562;2023-06-01T18:45:41;17.60;99.90
18690;DHT22;9782;52.930;15.562;2023-06-01T18:48:08;17.50;99.90
18690;DHT22;9782;52.930;15.562;2023-06-01T18:50:35;17.30;99.90
18690;DHT22;9782;52.930;15.562;2023-06-01T18:53:02;17.20;99.90
18690;DHT22;9782;52.930;15.562;2023-06-01T18:55:29;17.00;99.90
18690;DHT22;9782;52.930;15.562;2023-06-01T18:57:56;16.90;99.90
18690;DHT22;9782;52.930;15.562;2023-06-01T19:00:22;16.70;99.90
18690;DHT22;9782;52.930;15.562;2023-06-01T19:02:51;16.60;99.90
18690;DHT22;9782;52.930;15.562;2023-06-01T19:05:20;16.50;99.90
18690;DHT22;9782;52.930;15.562;2023-06-01T19:07:47;16.40;99.90
18690;DHT22;9782;52.930;15.562;2023-06-01T19:10:20;16.20;99.90
18690;DHT22;9782;52.930;15.562;2023-06-01T19:12:52;16.20;99.90
18690;DHT22;9782;52.930;15.562;2023-06-01T19:15:23;16.00;99.90
18690;DHT22;9782;52.930;15.562;2023-06-01T19:17:52;15.90;99.90
18690;DHT22;9782;52.930;15.562;2023-06-01T19:23:32;15.60;1.00
18690;DHT22;9782;52.930;15.562;2023-06-01T19:25:59;15.50;1.00
18690;DHT22;9782;52.930;15.562;2023-06-01T19:28:26;15.40;1.00
18690;DHT22;9782;52.930;15.562;2023-06-01T19:30:53;15.40;1.00
18690;DHT22;9782;52.930;15.562;2023-06-01T19:33:22;15.30;1.00
18690;DHT22;9782;52.930;15.562;2023-06-01T19:35:50;15.20;1.00
18690;DHT22;9782;52.930;15.562;2023-06-01T19:38:17;15.20;1.00
18690;DHT22;9782;52.930;15.562;2023-06-01T19:40:44;15.00;1.00
18690;DHT22;9782;52.930;15.562;2023-06-01T19:43:39;15.00;1.00
18690;DHT22;9782;52.930;15.562;2023-06-01T19:46:17;14.90;1.00
18690;DHT22;9782;52.930;15.562;2023-06-01T19:48:47;14.80;1.00
18690;DHT22;9782;52.930;15.562;2023-06-01T19:51:14;14.70;1.00
18690;DHT22;9782;52.930;15.562;2023-06-01T19:53:45;14.60;1.00
18690;DHT22;9782;52.930;15.562;2023-06-01T19:56:26;14.50;1.00
18690;DHT22;9782;52.930;15.562;2023-06-01T19:58:58;14.50;1.00
18690;DHT22;9782;52.930;15.562;2023-06-01T20:01:29;14.40;4.00
18690;DHT22;9782;52.930;15.562;2023-06-01T20:03:57;14.30;42.30
18690;DHT22;9782;52.930;15.562;2023-06-01T20:06:26;14.30;91.00
18690;DHT22;9782;52.930;15.562;2023-06-01T20:09:05;14.20;99.90
18690;DHT22;9782;52.930;15.562;2023-06-01T20:11:35;14.10;99.90
18690;DHT22;9782;52.930;15.562;2023-06-01T20:14:03;14.10;99.90
18690;DHT22;9782;52.930;15.562;2023-06-01T20:16:30;14.00;99.90
18690;DHT22;9782;52.930;15.562;2023-06-01T20:18:58;14.00;99.90
18690;DHT22;9782;52.930;15.562;2023-06-01T20:21:25;13.90;99.90
18690;DHT22;9782;52.930;15.562;2023-06-01T20:23:52;13.90;99.90
18690;DHT22;9782;52.930;15.562;2023-06-01T20:26:19;13.90;99.90
18690;DHT22;9782;52.930;15.562;2023-06-01T20:28:48;13.80;99.90
18690;DHT22;9782;52.930;15.562;2023-06-01T20:31:20;13.80;99.90
18690;DHT22;9782;52.930;15.562;2023-06-01T20:33:48;13.80;99.90
18690;DHT22;9782;52.930;15.562;2023-06-01T20:36:24;13.70;99.90
18690;DHT22;9782;52.930;15.562;2023-06-01T20:38:51;13.70;99.90
18690;DHT22;9782;52.930;15.562;2023-06-01T20:41:18;13.70;1.00
18690;DHT22;9782;52.930;15.562;2023-06-01T20:43:50;13.70;1.00
18690;DHT22;9782;52.930;15.562;2023-06-01T20:46:17;13.70;1.00
18690;DHT22;9782;52.930;15.562;2023-06-01T20:48:48;13.60;1.00
18690;DHT22;9782;52.930;15.562;2023-06-01T20:51:25;13.60;1.00
18690;DHT22;9782;52.930;15.562;2023-06-01T20:53:54;13.60;1.00
18690;DHT22;9782;52.930;15.562;2023-06-01T20:56:28;13.50;1.00
18690;DHT22;9782;52.930;15.562;2023-06-01T20:59:04;13.50;1.00
18690;DHT22;9782;52.930;15.562;2023-06-01T21:01:31;13.40;1.00
18690;DHT22;9782;52.930;15.562;2023-06-01T21:04:00;13.40;1.00
18690;DHT22;9782;52.930;15.562;2023-06-01T21:06:29;13.30;1.00
18690;DHT22;9782;52.930;15.562;2023-06-01T21:08:58;13.20;1.00
18690;DHT22;9782;52.930;15.562;2023-06-01T21:11:25;13.20;1.00
18690;DHT22;9782;52.930;15.562;2023-06-01T21:13:53;13.20;1.00
18690;DHT22;9782;52.930;15.562;2023-06-01T21:16:20;13.10;3.60
18690;DHT22;9782;52.930;15.562;2023-06-01T21:18:47;13.10;86.50
18690;DHT22;9782;52.930;15.562;2023-06-01T21:21:14;13.00;99.90
18690;DHT22;9782;52.930;15.562;2023-06-01T21:23:43;13.00;99.90
18690;DHT22;9782;52.930;15.562;2023-06-01T21:26:10;12.90;99.90
18690;DHT22;9782;52.930;15.562;2023-06-01T21:28:37;12.80;99.90
18690;DHT22;9782;52.930;15.562;2023-06-01T21:31:04;12.80;99.90
18690;DHT22;9782;52.930;15.562;2023-06-01T21:33:31;12.70;99.90
18690;DHT22;9782;52.930;15.562;2023-06-01T21:35:58;12.60;99.90
18690;DHT22;9782;52.930;15.562;2023-06-01T21:38:25;12.50;99.90
18690;DHT22;9782;52.930;15.562;2023-06-01T21:40:54;12.40;99.90
18690;DHT22;9782;52.930;15.562;2023-06-01T21:43:22;12.30;99.90
18690;DHT22;9782;52.930;15.562;2023-06-01T21:45:49;12.20;99.90
18690;DHT22;9782;52.930;15.562;2023-06-01T21:48:16;12.10;99.90
18690;DHT22;9782;52.930;15.562;2023-06-01T21:50:44;12.00;1.00
18690;DHT22;9782;52.930;15.562;2023-06-01T21:53:13;12.00;1.00
18690;DHT22;9782;52.930;15.562;2023-06-01T21:55:40;11.90;1.00
18690;DHT22;9782;52.930;15.562;2023-06-01T21:58:09;11.80;1.00
18690;DHT22;9782;52.930;15.562;2023-06-01T22:00:36;11.70;1.00
18690;DHT22;9782;52.930;15.562;2023-06-01T22:03:03;11.70;1.00
18690;DHT22;9782;52.930;15.562;2023-06-01T22:05:31;11.60;1.00
18690;DHT22;9782;52.930;15.562;2023-06-01T22:07:58;11.60;1.00
18690;DHT22;9782;52.930;15.562;2023-06-01T22:10:25;11.60;1.00
18690;DHT22;9782;52.930;15.562;2023-06-01T22:12:52;11.50;1.00
18690;DHT22;9782;52.930;15.562;2023-06-01T22:15:20;11.50;1.00
18690;DHT22;9782;52.930;15.562;2023-06-01T22:17:48;11.50;99.90
18690;DHT22;9782;52.930;15.562;2023-06-01T22:20:16;11.50;99.90
18690;DHT22;9782;52.930;15.562;2023-06-01T22:22:43;11.50;99.90
18690;DHT22;9782;52.930;15.562;2023-06-01T22:25:10;11.50;99.90
18690;DHT22;9782;52.930;15.562;2023-06-01T22:27:37;11.60;99.90
18690;DHT22;9782;52.930;15.562;2023-06-01T22:30:05;11.60;99.90
18690;DHT22;9782;52.930;15.562;2023-06-01T22:32:33;11.50;99.90
18690;DHT22;9782;52.930;15.562;2023-06-01T22:35:00;11.50;99.90
18690;DHT22;9782;52.930;15.562;2023-06-01T22:37:27;11.50;99.90
18690;DHT22;9782;52.930;15.562;2023-06-01T22:39:54;11.40;99.90
18690;DHT22;9782;52.930;15.562;2023-06-01T22:42:21;11.40;99.90
18690;DHT22;9782;52.930;15.562;2023-06-01T22:44:48;11.40;99.90
18690;DHT22;9782;52.930;15.562;2023-06-01T22:47:15;11.40;99.90
18690;DHT22;9782;52.930;15.562;2023-06-01T22:49:43;11.40;99.90
18690;DHT22;9782;52.930;15.562;2023-06-01T22:52:11;11.40;1.00
18690;DHT22;9782;52.930;15.562;2023-06-01T22:54:38;11.40;1.00
18690;DHT22;9782;52.930;15.562;2023-06-01T22:57:06;11.40;1.00
18690;DHT22;9782;52.930;15.562;2023-06-01T22:59:34;11.40;1.00
18690;DHT22;9782;52.930;15.562;2023-06-01T23:02:01;11.30;1.00
18690;DHT22;9782;52.930;15.562;2023-06-01T23:04:28;11.30;1.00
18690;DHT22;9782;52.930;15.562;2023-06-01T23:07:01;11.30;1.00
18690;DHT22;9782;52.930;15.562;2023-06-01T23:09:33;11.20;1.00
18690;DHT22;9782;52.930;15.562;2023-06-01T23:12:00;11.20;1.00
18690;DHT22;9782;52.930;15.562;2023-06-01T23:14:28;11.10;1.00
18690;DHT22;9782;52.930;15.562;2023-06-01T23:16:58;11.10;1.00
18690;DHT22;9782;52.930;15.562;2023-06-01T23:19:28;11.00;1.00
18690;DHT22;9782;52.930;15.562;2023-06-01T23:21:58;10.90;99.90
18690;DHT22;9782;52.930;15.562;2023-06-01T23:24:26;10.80;99.90
18690;DHT22;9782;52.930;15.562;2023-06-01T23:26:54;10.80;99.90
18690;DHT22;9782;52.930;15.562;2023-06-01T23:29:21;10.80;99.90
18690;DHT22;9782;52.930;15.562;2023-06-01T23:31:48;10.60;99.90
18690;DHT22;9782;52.930;15.562;2023-06-01T23:34:15;10.50;99.90
18690;DHT22;9782;52.930;15.562;2023-06-01T23:36:42;10.40;99.90
18690;DHT22;9782;52.930;15.562;2023-06-01T23:39:11;10.30;99.90
18690;DHT22;9782;52.930;15.562;2023-06-01T23:41:40;10.20;99.90
18690;DHT22;9782;52.930;15.562;2023-06-01T23:44:07;10.10;99.90
18690;DHT22;9782;52.930;15.562;2023-06-01T23:46:34;10.10;99.90
18690;DHT22;9782;52.930;15.562;2023-06-01T23:49:02;10.00;99.90
18690;DHT22;9782;52.930;15.562;2023-06-01T23:51:29;10.00;99.90
18690;DHT22;9782;52.930;15.562;2023-06-01T23:53:56;10.00;99.90
18690;DHT22;9782;52.930;15.562;2023-06-01T23:56:23;9.90;1.00
18690;DHT22;9782;52.930;15.562;2023-06-01T23:58:52;9.90;1.00
